Time;durP1;ratioP1;P1;durP2;ratioP2;P2;SDS_P1;SDS_P2;PMS_P1;PMS_P2;Temp;Humidity;BMP_temperature;BMP_pressure;BME280_temperature;BME280_humidity;BME280_pressure;Samples;Min_cycle;Max_cycle;Signal;HPM_P1;HPM_P2
2024/03/22 00:01:30;;;;;;;14.88;9.98;;;;;;;9.31;100.00;101368.59;4910769;29;20067;-88
2024/03/22 00:03:56;;;;;;;14.07;10.13;;;;;;;9.31;100.00;101360.75;4909637;29;20057;-88
2024/03/22 00:06:24;;;;;;;14.65;10.13;;;;;;;9.35;100.00;101362.56;4910080;29;20075;-87
2024/03/22 00:08:54;;;;;;;18.20;11.05;;;;;;;9.30;100.00;101362.50;4939363;29;20055;-87
2024/03/22 00:11:19;;;;;;;14.73;11.30;;;;;;;9.31;100.00;101359.03;4940580;29;20043;-86
2024/03/22 00:13:46;;;;;;;17.17;12.07;;;;;;;9.32;100.00;101360.78;4910479;29;20530;-89
2024/03/22 00:16:12;;;;;;;14.80;11.13;;;;;;;9.33;100.00;101356.44;4926209;29;20377;-87
2024/03/22 00:18:39;;;;;;;18.27;13.32;;;;;;;9.32;100.00;101358.19;4944966;29;20040;-86
2024/03/22 00:21:07;;;;;;;19.15;13.20;;;;;;;9.29;100.00;101349.44;4930710;29;20040;-87
2024/03/22 00:23:34;;;;;;;22.73;13.93;;;;;;;9.33;100.00;101352.06;4911651;29;20047;-88
2024/03/22 00:26:03;;;;;;;22.67;13.85;;;;;;;9.31;100.00;101353.81;4925479;29;20271;-86
2024/03/22 00:28:35;;;;;;;25.98;14.25;;;;;;;9.34;100.00;101353.81;4948324;29;20114;-87
2024/03/22 00:31:04;;;;;;;26.60;14.30;;;;;;;9.37;100.00;101350.34;4925828;29;20075;-86
2024/03/22 00:33:34;;;;;;;22.15;15.93;;;;;;;9.37;100.00;101340.81;4913306;29;20055;-88
2024/03/22 00:36:03;;;;;;;22.58;15.05;;;;;;;9.39;100.00;101335.59;4914203;29;20076;-89
2024/03/22 00:38:37;;;;;;;26.25;15.93;;;;;;;9.40;100.00;101338.19;4938376;29;20071;-87
2024/03/22 00:41:03;;;;;;;22.23;15.52;;;;;;;9.40;100.00;101330.34;4927951;29;20064;-86
2024/03/22 00:43:31;;;;;;;24.17;16.23;;;;;;;9.41;100.00;101323.38;4911958;29;20058;-87
2024/03/22 00:45:58;;;;;;;25.35;17.15;;;;;;;9.47;100.00;101325.19;4920253;29;20051;-88
2024/03/22 00:48:25;;;;;;;28.17;18.95;;;;;;;9.46;100.00;101316.44;4942142;29;20130;-88
2024/03/22 00:50:51;;;;;;;30.65;20.05;;;;;;;9.45;100.00;101322.53;4913893;29;20059;-85
2024/03/22 00:53:17;;;;;;;32.50;19.88;;;;;;;9.48;100.00;101324.28;4923405;29;20074;-86
2024/03/22 00:55:43;;;;;;;29.35;19.95;;;;;;;9.50;100.00;101323.44;4924557;29;20058;-87
2024/03/22 00:58:10;;;;;;;32.10;21.25;;;;;;;9.51;100.00;101313.88;4923170;29;20048;-87
2024/03/22 01:00:37;;;;;;;33.15;20.42;;;;;;;9.54;100.00;101314.78;4909982;29;20063;-87
2024/03/22 01:03:08;;;;;;;35.55;21.55;;;;;;;9.55;100.00;101306.03;4926574;29;20083;-87
2024/03/22 01:05:34;;;;;;;37.88;21.50;;;;;;;9.58;100.00;101313.94;4925274;29;20056;-86
2024/03/22 01:08:03;;;;;;;35.88;21.77;;;;;;;9.58;100.00;101305.19;4927527;29;20131;-87
2024/03/22 01:10:34;;;;;;;39.97;23.63;;;;;;;9.57;100.00;101299.09;4911723;29;20051;-87
2024/03/22 01:13:06;;;;;;;33.67;20.98;;;;;;;9.64;100.00;101291.31;4896800;29;20071;-88
2024/03/22 01:15:31;;;;;;;37.40;23.88;;;;;;;9.66;100.00;101297.38;4910054;29;20459;-88
2024/03/22 01:17:58;;;;;;;38.28;23.08;;;;;;;9.72;100.00;101298.28;4906292;29;20052;-86
2024/03/22 01:20:24;;;;;;;31.30;20.98;;;;;;;9.69;100.00;101300.91;4926566;29;20047;-85
2024/03/22 01:22:51;;;;;;;37.83;21.48;;;;;;;9.71;100.00;101299.19;4926246;29;20052;-87
2024/03/22 01:25:18;;;;;;;36.83;22.73;;;;;;;9.74;100.00;101288.72;4914533;29;20051;-87
2024/03/22 01:27:46;;;;;;;40.25;22.55;;;;;;;9.75;100.00;101285.25;4924358;29;20115;-88
2024/03/22 01:30:21;;;;;;;39.35;23.60;;;;;;;9.76;100.00;101281.78;4925650;29;20040;-87
2024/03/22 01:32:48;;;;;;;36.55;23.27;;;;;;;9.81;100.00;101278.31;4926369;29;20054;-89
2024/03/22 01:35:14;;;;;;;37.85;23.65;;;;;;;9.82;100.00;101267.84;4903569;29;20032;-87
2024/03/22 01:37:43;;;;;;;36.40;23.17;;;;;;;9.82;100.00;101267.84;4922351;29;20090;-88
2024/03/22 01:40:10;;;;;;;37.75;22.70;;;;;;;9.84;100.00;101266.13;4922930;29;20162;-85
2024/03/22 01:42:37;;;;;;;40.65;24.33;;;;;;;9.87;100.00;101258.28;4927042;29;20058;-85
2024/03/22 01:45:03;;;;;;;38.10;23.92;;;;;;;9.87;100.00;101260.03;4925684;29;20043;-88
2024/03/22 01:47:30;;;;;;;42.55;25.10;;;;;;;9.87;100.00;101257.41;4917918;29;20052;-88
2024/03/22 01:49:56;;;;;;;38.53;21.52;;;;;;;9.89;100.00;101256.53;4940349;29;20059;-86
2024/03/22 01:52:24;;;;;;;34.33;23.65;;;;;;;9.87;100.00;101247.81;4937105;29;20044;-85
2024/03/22 01:54:52;;;;;;;37.60;23.83;;;;;;;9.87;100.00;101237.34;4907581;29;20175;-88
2024/03/22 01:57:22;;;;;;;40.80;23.55;;;;;;;9.92;100.00;101238.25;4911299;29;20048;-85
2024/03/22 01:59:54;;;;;;;42.05;26.17;;;;;;;9.93;100.00;101242.63;4922630;29;20074;-87
2024/03/22 02:02:20;;;;;;;40.05;23.17;;;;;;;9.94;100.00;101239.09;4923936;29;20079;-89
2024/03/22 02:04:46;;;;;;;42.67;23.23;;;;;;;9.93;100.00;101226.94;4938492;29;20054;-88
2024/03/22 02:07:15;;;;;;;41.15;24.25;;;;;;;9.93;100.00;101226.94;4927583;29;20392;-88
2024/03/22 02:09:41;;;;;;;39.08;22.85;;;;;;;9.91;100.00;101223.41;4916826;29;20047;-88
2024/03/22 02:12:13;;;;;;;43.88;23.17;;;;;;;9.95;100.00;101213.84;4936297;29;20062;-85
2024/03/22 02:14:42;;;;;;;36.53;22.65;;;;;;;9.92;100.00;101206.88;4924511;29;20088;-87
2024/03/22 02:17:09;;;;;;;41.00;25.08;;;;;;;9.90;100.00;101207.72;4905423;29;20401;-85
2024/03/22 02:19:34;;;;;;;38.92;22.90;;;;;;;9.89;100.00;101203.34;4921562;29;20028;-89
2024/03/22 02:22:04;;;;;;;39.40;23.38;;;;;;;9.89;100.00;101198.13;4913474;29;20038;-86
2024/03/22 02:24:33;;;;;;;37.67;21.92;;;;;;;9.88;100.00;101184.19;4908958;29;20087;-87
2024/03/22 02:27:03;;;;;;;33.95;20.52;;;;;;;9.86;100.00;101180.69;4908592;29;20057;-86
2024/03/22 02:29:30;;;;;;;34.65;21.77;;;;;;;9.85;100.00;101178.94;4911797;29;20108;-88
2024/03/22 02:31:59;;;;;;;41.38;23.75;;;;;;;9.84;100.00;101176.31;4914304;29;20055;-86
2024/03/22 02:34:24;;;;;;;39.85;22.50;;;;;;;9.85;100.00;101171.09;4916784;29;20058;-86
2024/03/22 02:36:51;;;;;;;33.60;20.92;;;;;;;9.89;100.00;101179.81;4947812;29;20056;-86
2024/03/22 02:39:18;;;;;;;37.58;22.50;;;;;;;9.89;100.00;101175.44;4940558;28;20119;-86
2024/03/22 02:41:45;;;;;;;38.50;22.50;;;;;;;9.91;100.00;101170.25;4927444;29;20067;-87
2024/03/22 02:44:11;;;;;;;39.97;25.13;;;;;;;9.92;100.00;101169.34;4909373;29;20107;-86
2024/03/22 02:46:40;;;;;;;40.45;23.67;;;;;;;9.89;100.00;101167.59;4906474;29;20436;-87
2024/03/22 02:49:06;;;;;;;40.90;23.85;;;;;;;9.92;100.00;101156.28;4912645;29;20050;-88
2024/03/22 02:51:33;;;;;;;37.08;22.77;;;;;;;9.94;100.00;101162.41;4913891;29;20063;-87
2024/03/22 02:54:18;;;;;;;44.53;25.05;;;;;;;9.98;100.00;101165.91;4911349;29;20052;-88
2024/03/22 02:56:44;;;;;;;40.53;24.55;;;;;;;9.98;100.00;101165.91;4909954;29;20579;-87
2024/03/22 02:59:13;;;;;;;40.95;23.02;;;;;;;10.01;100.00;101155.44;4916544;29;20040;-88
2024/03/22 03:01:45;;;;;;;47.63;26.08;;;;;;;10.01;100.00;101150.19;4915315;29;20055;-89
2024/03/22 03:04:11;;;;;;;39.95;25.27;;;;;;;10.05;100.00;101134.53;4911690;29;20078;-84
2024/03/22 03:06:42;;;;;;;40.40;23.88;;;;;;;10.02;100.00;101120.56;4916677;29;20051;-84
2024/03/22 03:09:10;;;;;;;45.42;25.23;;;;;;;10.02;100.00;101137.13;4925380;29;20131;-86
2024/03/22 03:11:37;;;;;;;40.95;23.48;;;;;;;10.04;100.00;101143.25;4914851;29;20464;-86
2024/03/22 03:14:06;;;;;;;38.00;23.20;;;;;;;10.05;100.00;101134.53;4931811;29;20070;-87
2024/03/22 03:16:35;;;;;;;38.35;22.25;;;;;;;10.05;100.00;101126.69;4932680;29;20040;-87
2024/03/22 03:19:01;;;;;;;43.17;24.92;;;;;;;10.05;100.00;101124.06;4908201;29;20056;-88
2024/03/22 03:21:27;;;;;;;45.08;25.23;;;;;;;10.00;100.00;101115.34;4910274;29;20403;-86
2024/03/22 03:23:53;;;;;;;40.08;23.38;;;;;;;9.96;100.00;101112.72;4924958;29;20047;-87
2024/03/22 03:26:20;;;;;;;38.78;25.52;;;;;;;9.94;100.00;101107.47;4915766;29;20071;-86
2024/03/22 03:28:45;;;;;;;41.10;25.13;;;;;;;9.96;100.00;101104.88;4915550;29;20134;-87
2024/03/22 03:31:13;;;;;;;43.38;24.15;;;;;;;9.93;100.00;101093.53;4964943;28;20090;-89
2024/03/22 03:33:38;;;;;;;40.38;24.13;;;;;;;9.95;100.00;101090.94;4964175;28;20055;-87
2024/03/22 03:36:06;;;;;;;39.63;23.88;;;;;;;9.88;100.00;101084.81;4924383;29;20044;-86
2024/03/22 03:38:31;;;;;;;48.17;23.55;;;;;;;9.87;100.00;101080.47;4906530;29;20048;-85
2024/03/22 03:40:58;;;;;;;44.83;25.48;;;;;;;9.88;100.00;101079.59;4906742;29;20138;-87
2024/03/22 03:43:27;;;;;;;46.65;24.85;;;;;;;9.85;100.00;101074.34;4914899;29;20103;-88
2024/03/22 03:45:54;;;;;;;45.83;25.52;;;;;;;9.87;100.00;101071.75;4937706;29;20488;-87
2024/03/22 03:48:19;;;;;;;46.38;25.60;;;;;;;9.85;100.00;101074.34;4929428;29;20055;-86
2024/03/22 03:50:59;;;;;;;44.72;25.98;;;;;;;9.82;100.00;101079.59;4937747;29;20149;-88
2024/03/22 03:53:27;;;;;;;44.05;23.67;;;;;;;9.85;100.00;101078.72;4925089;29;20058;-87
2024/03/22 03:55:54;;;;;;;51.00;25.67;;;;;;;9.87;100.00;101076.97;4914579;29;20111;-87
2024/03/22 03:58:21;;;;;;;46.20;26.73;;;;;;;9.85;100.00;101070.88;4925282;29;20047;-87
2024/03/22 04:00:48;;;;;;;44.30;26.10;;;;;;;9.88;100.00;101073.47;4931197;29;20115;-85
2024/03/22 04:03:14;;;;;;;45.80;27.10;;;;;;;9.89;100.00;101067.38;4927666;29;20055;-88
2024/03/22 04:05:41;;;;;;;49.88;27.85;;;;;;;9.90;100.00;101063.91;4927726;29;20051;-87
2024/03/22 04:08:06;;;;;;;48.40;26.58;;;;;;;9.88;100.00;101058.66;4909022;29;20055;-85
2024/03/22 04:10:33;;;;;;;51.80;27.70;;;;;;;9.89;100.00;101059.53;4911331;29;20453;-87
2024/03/22 04:12:59;;;;;;;46.72;25.95;;;;;;;9.91;100.00;101058.66;4904531;29;20051;-88
2024/03/22 04:15:25;;;;;;;50.15;26.52;;;;;;;9.93;100.00;101053.44;4906929;29;20330;-86
2024/03/22 04:17:54;;;;;;;45.85;24.58;;;;;;;9.96;100.00;101042.09;4929700;29;20047;-88
2024/03/22 04:20:20;;;;;;;49.63;27.15;;;;;;;9.95;100.00;101041.25;4928970;29;20052;-87
2024/03/22 04:22:49;;;;;;;44.22;26.27;;;;;;;9.97;100.00;101036.84;4939417;29;20110;-87
2024/03/22 04:25:16;;;;;;;52.30;29.52;;;;;;;9.99;100.00;101036.88;4916646;29;20052;-86
2024/03/22 04:27:42;;;;;;;51.92;26.73;;;;;;;9.97;100.00;101026.41;4908216;29;20135;-87
2024/03/22 04:30:14;;;;;;;51.78;27.80;;;;;;;10.00;100.00;101018.56;4909480;29;20044;-87
2024/03/22 04:32:40;;;;;;;49.97;27.13;;;;;;;10.00;100.00;101023.81;4944598;29;20573;-87
2024/03/22 04:35:07;;;;;;;46.63;25.27;;;;;;;10.03;100.00;101010.72;4912155;29;20043;-87
2024/03/22 04:37:34;;;;;;;48.65;27.45;;;;;;;10.01;100.00;101009.84;4912027;29;20067;-89
2024/03/22 04:40:04;;;;;;;50.63;28.50;;;;;;;10.01;100.00;101001.13;4928339;29;20090;-88
2024/03/22 04:42:34;;;;;;;54.97;27.70;;;;;;;9.96;100.00;101000.25;4921192;29;20052;-89
2024/03/22 04:45:01;;;;;;;49.78;27.17;;;;;;;9.96;100.00;100992.41;4912065;29;20051;-88
2024/03/22 04:47:37;;;;;;;50.33;28.45;;;;;;;9.96;100.00;100992.41;4940754;29;20074;-89
2024/03/22 04:50:05;;;;;;;49.55;27.65;;;;;;;9.93;100.00;100993.28;4924482;29;20067;-85
2024/03/22 04:52:31;;;;;;;54.00;28.55;;;;;;;9.88;100.00;100990.69;4940961;29;20422;-88
2024/03/22 04:54:57;;;;;;;58.80;28.17;;;;;;;9.85;100.00;100988.06;4893086;29;20047;-86
2024/03/22 04:57:24;;;;;;;52.75;29.80;;;;;;;9.86;100.00;100988.94;4926195;29;20071;-86
2024/03/22 04:59:55;;;;;;;55.17;29.85;;;;;;;9.89;100.00;100988.94;4929352;29;20047;-87
2024/03/22 05:02:23;;;;;;;56.97;31.20;;;;;;;9.91;100.00;100982.81;4933495;29;20051;-87
2024/03/22 05:04:50;;;;;;;55.03;29.50;;;;;;;9.94;100.00;100980.19;4939227;29;20043;-87
2024/03/22 05:07:18;;;;;;;55.85;28.67;;;;;;;9.91;100.00;100985.44;4919967;29;20047;-85
2024/03/22 05:09:48;;;;;;;53.20;29.00;;;;;;;9.91;100.00;100984.59;4954185;29;20036;-88
2024/03/22 05:12:18;;;;;;;55.75;28.30;;;;;;;9.92;100.00;100981.06;4914428;29;20469;-85
2024/03/22 05:14:45;;;;;;;50.97;28.08;;;;;;;9.90;100.00;100983.69;4915902;29;20028;-86
2024/03/22 05:17:13;;;;;;;58.58;30.05;;;;;;;9.90;100.00;100980.22;4909607;29;20047;-87
2024/03/22 05:19:41;;;;;;;54.33;27.70;;;;;;;9.89;100.00;100974.09;4929298;29;20044;-88
2024/03/22 05:22:07;;;;;;;49.05;27.83;;;;;;;9.95;100.00;100970.63;4927408;29;20051;-87
2024/03/22 05:24:33;;;;;;;50.78;28.67;;;;;;;9.96;100.00;100969.75;4914291;29;20051;-87
2024/03/22 05:27:05;;;;;;;50.03;27.55;;;;;;;9.96;100.00;100967.16;4928471;29;20128;-86
2024/03/22 05:29:33;;;;;;;50.00;28.02;;;;;;;10.00;100.00;100965.38;4909246;29;20044;-85
2024/03/22 05:32:03;;;;;;;49.33;26.83;;;;;;;10.00;100.00;100962.75;4941088;29;20067;-86
2024/03/22 05:34:31;;;;;;;52.20;27.73;;;;;;;10.01;100.00;100957.53;4925246;29;20086;-87
2024/03/22 05:37:08;;;;;;;51.75;27.25;;;;;;;10.01;100.00;100956.66;4911260;29;20052;-88
2024/03/22 05:39:40;;;;;;;53.85;31.60;;;;;;;10.02;100.00;100953.19;4913460;29;20048;-86
2024/03/22 05:42:07;;;;;;;47.58;25.15;;;;;;;10.05;100.00;100946.19;4911431;29;20075;-86
2024/03/22 05:44:37;;;;;;;50.22;26.30;;;;;;;10.04;100.00;100949.69;4914230;29;20492;-86
2024/03/22 05:47:03;;;;;;;51.85;26.95;;;;;;;10.09;100.00;100945.31;4931049;29;20087;-85
2024/03/22 05:49:36;;;;;;;48.22;25.67;;;;;;;10.09;100.00;100940.09;4923659;29;20493;-87
2024/03/22 05:52:19;;;;;;;44.80;25.58;;;;;;;10.12;100.00;100938.31;4910780;29;20055;-86
2024/03/22 05:54:49;;;;;;;53.83;26.85;;;;;;;10.14;100.00;100932.19;4912117;29;20620;-86
2024/03/22 05:57:18;;;;;;;47.50;25.33;;;;;;;10.17;100.00;100926.09;4918232;29;20072;-86
2024/03/22 05:59:53;;;;;;;50.95;27.23;;;;;;;10.23;100.00;100928.69;4918430;29;20039;-88
2024/03/22 06:02:19;;;;;;;46.10;26.67;;;;;;;10.25;100.00;100932.19;4932648;29;20299;-87
2024/03/22 06:04:49;;;;;;;46.78;25.50;;;;;;;10.26;100.00;100932.19;4904542;29;20052;-88
2024/03/22 06:07:18;;;;;;;52.80;26.38;;;;;;;10.29;100.00;100933.06;4912285;29;20047;-87
2024/03/22 06:09:53;;;;;;;49.55;24.48;;;;;;;10.29;100.00;100933.06;4917722;29;20092;-86
2024/03/22 06:12:22;;;;;;;46.42;24.90;;;;;;;10.34;100.00;100928.66;4949520;29;20071;-87
2024/03/22 06:17:32;;;;;;;52.45;25.88;;;;;;;10.40;100.00;100926.94;4928835;29;20051;-86
2024/03/22 06:20:11;;;;;;;42.65;23.85;;;;;;;10.38;100.00;100926.06;4918283;29;20054;-86
2024/03/22 06:22:46;;;;;;;52.90;26.45;;;;;;;10.40;100.00;100926.06;4917852;29;20048;-89
2024/03/22 06:25:12;;;;;;;45.67;25.67;;;;;;;10.46;100.00;100922.56;4923378;29;20495;-86
2024/03/22 06:27:39;;;;;;;44.35;25.45;;;;;;;10.49;100.00;100915.53;4914470;29;20072;-87
2024/03/22 06:30:10;;;;;;;46.90;28.10;;;;;;;10.49;100.00;100914.69;4913629;29;20454;-87
2024/03/22 06:32:38;;;;;;;46.42;25.27;;;;;;;10.55;100.00;100910.28;4929804;29;20640;-86
2024/03/22 06:35:07;;;;;;;45.13;25.55;;;;;;;10.59;100.00;100914.63;4921998;29;20044;-90
2024/03/22 06:37:47;;;;;;;46.13;23.73;;;;;;;10.62;100.00;100905.03;4930454;29;20036;-87
2024/03/22 06:40:30;;;;;;;;;;;;;;;;;;;;;
2024/03/22 06:43:01;;;;;;;43.50;24.40;;;;;;;10.72;100.00;100904.97;4919255;29;20054;-87
2024/03/22 06:45:27;;;;;;;44.85;24.27;;;;;;;10.76;100.00;100900.59;4931084;29;20047;-87
2024/03/22 06:48:11;;;;;;;41.70;22.85;;;;;;;10.82;100.00;100908.41;4933772;29;20087;-88
2024/03/22 06:50:56;;;;;;;45.63;24.15;;;;;;;10.89;100.00;100909.25;4923387;29;20047;-85
2024/03/22 06:53:29;;;;;;;46.45;25.60;;;;;;;10.95;100.00;100916.19;4935978;29;20036;-89
2024/03/22 06:55:57;;;;;;;40.63;22.90;;;;;;;11.02;100.00;100900.41;4916942;29;20095;-88
2024/03/22 06:58:25;;;;;;;41.35;23.42;;;;;;;11.08;100.00;100897.75;4931761;29;20059;-87
2024/03/22 07:00:53;;;;;;;40.05;21.92;;;;;;;11.14;100.00;100898.59;4930068;29;20059;-89
2024/03/22 07:03:19;;;;;;;37.65;22.73;;;;;;;11.20;100.00;100898.56;4915871;29;20044;-88
2024/03/22 07:05:51;;;;;;;40.53;22.38;;;;;;;11.24;100.00;100888.03;4929878;29;20039;-86
2024/03/22 07:08:22;;;;;;;38.80;21.52;;;;;;;11.31;100.00;100880.97;4916876;29;20040;-87
2024/03/22 07:10:48;;;;;;;35.83;22.17;;;;;;;11.41;100.00;100887.03;4915769;29;20134;-88
2024/03/22 07:13:19;;;;;;;40.25;22.10;;;;;;;11.49;100.00;100890.44;5116229;23;20540;-88
2024/03/22 07:15:47;;;;;;;33.60;19.42;;;;;;;11.57;100.00;100877.25;4983360;28;20042;-90
2024/03/22 07:18:16;;;;;;;36.00;20.30;;;;;;;11.71;100.00;100866.66;4987469;28;20054;-90
2024/03/22 07:20:46;;;;;;;35.13;20.58;;;;;;;11.78;100.00;100868.31;4991796;28;20046;-90
2024/03/22 07:23:13;;;;;;;33.42;19.35;;;;;;;11.88;100.00;100862.09;4988250;28;20070;-90
2024/03/22 07:25:39;;;;;;;34.72;20.40;;;;;;;11.89;100.00;100855.09;4977722;28;20049;-88
2024/03/22 07:28:12;;;;;;;35.15;18.80;;;;;;;11.87;100.00;100847.22;4994412;28;20058;-87
2024/03/22 07:30:42;;;;;;;29.83;18.52;;;;;;;11.97;100.00;100855.91;5065375;23;20062;-86
2024/03/22 07:33:17;;;;;;;33.15;17.92;;;;;;;12.00;100.00;100850.59;4942449;28;20051;-86
2024/03/22 07:35:44;;;;;;;33.45;19.05;;;;;;;12.08;100.00;100847.91;4953531;28;20088;-85
2024/03/22 07:38:11;;;;;;;31.35;19.35;;;;;;;12.14;100.00;100850.47;4967681;28;20090;-85
2024/03/22 07:40:37;;;;;;;34.55;18.77;;;;;;;12.19;100.00;100837.25;4950492;28;20490;-88
2024/03/22 07:43:06;;;;;;;254.50;64.65;;;;;;;12.16;100.00;100842.56;4963674;28;20046;-85
2024/03/22 07:45:35;;;;;;;36.50;19.83;;;;;;;12.20;100.00;100858.25;4968261;28;20065;-85
2024/03/22 07:48:05;;;;;;;28.92;18.02;;;;;;;12.13;100.00;100847.84;4965307;28;20074;-86
2024/03/22 07:50:33;;;;;;;33.25;18.88;;;;;;;12.16;100.00;100848.69;4948857;28;20046;-85
2024/03/22 07:53:03;;;;;;;26.98;18.88;;;;;;;12.23;100.00;100854.72;4954152;28;20067;-86
2024/03/22 07:55:31;;;;;;;28.00;18.55;;;;;;;12.20;100.00;100844.25;4951758;28;20510;-87
2024/03/22 07:57:58;;;;;;;30.25;17.55;;;;;;;12.19;100.00;100835.53;4946937;29;20593;-88
2024/03/22 08:00:25;;;;;;;28.65;17.80;;;;;;;12.19;100.00;100851.28;4933923;28;20063;-88
2024/03/22 08:02:53;;;;;;;33.45;18.48;;;;;;;12.18;100.00;100849.53;4936079;28;20075;-87
2024/03/22 08:05:19;;;;;;;25.45;15.98;;;;;;;12.17;100.00;100857.41;4946458;28;20531;-86
2024/03/22 08:07:54;;;;;;;37.17;17.05;;;;;;;12.12;100.00;100854.84;4948749;28;20039;-85
2024/03/22 08:10:23;;;;;;;29.05;16.42;;;;;;;12.08;100.00;100855.78;4936151;29;20103;-86
2024/03/22 08:12:57;;;;;;;33.60;17.05;;;;;;;12.08;100.00;100838.28;4934131;29;20047;-87
2024/03/22 08:15:24;;;;;;;35.90;19.00;;;;;;;12.10;100.00;100845.25;4928621;28;20059;-86
2024/03/22 08:17:52;;;;;;;26.92;18.30;;;;;;;12.17;100.00;100844.31;4928847;29;20055;-87
2024/03/22 08:20:18;;;;;;;29.90;17.58;;;;;;;12.14;100.00;100845.22;4947721;28;20036;-88
2024/03/22 08:22:45;;;;;;;30.23;18.23;;;;;;;12.15;100.00;100833.84;4931283;28;20043;-86
2024/03/22 08:25:17;;;;;;;25.98;16.20;;;;;;;12.19;100.00;100832.00;4967518;28;20050;-86
2024/03/22 08:27:45;;;;;;;27.63;17.08;;;;;;;12.30;100.00;100824.88;4939441;28;20043;-87
2024/03/22 08:30:12;;;;;;;25.25;16.30;;;;;;;12.22;100.00;100826.75;4927432;28;20115;-84
2024/03/22 08:32:41;;;;;;;30.45;18.00;;;;;;;12.27;100.00;100830.19;4936783;28;20079;-88
2024/03/22 08:35:07;;;;;;;25.27;16.35;;;;;;;12.28;100.00;100829.28;4941602;28;20042;-87
2024/03/22 08:37:34;;;;;;;24.55;15.93;;;;;;;12.23;100.00;100815.38;4932346;28;20047;-87
2024/03/22 08:40:01;;;;;;;26.42;16.85;;;;;;;12.27;100.00;100818.78;4942381;29;20043;-89
2024/03/22 08:42:27;;;;;;;28.40;16.35;;;;;;;12.31;100.00;100825.75;4935313;28;20070;-88
2024/03/22 08:44:53;;;;;;;28.63;15.77;;;;;;;12.26;100.00;100820.56;4946794;28;20688;-85
2024/03/22 08:50:05;;;;;;;25.42;14.77;;;;;;;12.30;100.00;100817.00;4950011;29;20141;-86
2024/03/22 08:52:35;;;;;;;23.77;15.27;;;;;;;12.29;100.00;100811.78;4930424;28;20055;-86
2024/03/22 08:55:04;;;;;;;23.60;16.10;;;;;;;12.28;100.00;100818.78;4943562;28;20079;-89
2024/03/22 08:57:33;;;;;;;30.35;16.52;;;;;;;12.26;100.00;100811.84;4923001;29;20035;-90
2024/03/22 09:00:08;;;;;;;27.40;15.93;;;;;;;12.24;100.00;100811.81;4933906;29;20103;-88
2024/03/22 09:02:34;;;;;;;29.35;15.05;;;;;;;12.18;100.00;100806.69;4951932;28;20076;-87
2024/03/22 09:05:05;;;;;;;25.38;14.82;;;;;;;12.14;100.00;100811.09;4952021;29;20055;-86
2024/03/22 09:07:39;;;;;;;23.05;14.60;;;;;;;12.16;100.00;100803.19;4965144;28;20041;-88
2024/03/22 09:10:09;;;;;;;27.40;15.20;;;;;;;12.21;100.00;100802.22;4939246;29;20043;-90
2024/03/22 09:12:38;;;;;;;25.55;14.93;;;;;;;12.24;100.00;100796.06;4944543;28;20147;-89
2024/03/22 09:15:08;;;;;;;26.13;14.77;;;;;;;12.33;100.00;100800.34;4936021;28;20150;-86
2024/03/22 09:17:34;;;;;;;23.42;14.35;;;;;;;12.30;100.00;100788.13;4960651;28;20378;-89
2024/03/22 09:20:01;;;;;;;22.77;14.23;;;;;;;12.36;100.00;100785.41;4944794;29;20062;-87
2024/03/22 09:22:26;;;;;;;23.92;14.02;;;;;;;12.41;100.00;100788.84;4931152;29;20043;-88
2024/03/22 09:24:56;;;;;;;21.23;12.52;;;;;;;12.38;100.00;100782.75;4932677;29;20071;-90
2024/03/22 09:27:21;;;;;;;26.92;14.57;;;;;;;12.50;99.99;100786.97;4940287;28;20043;-89
2024/03/22 09:29:50;;;;;;;20.15;13.85;;;;;;;12.53;98.45;100769.41;4950102;29;20038;-89
2024/03/22 09:32:16;;;;;;;22.42;13.43;;;;;;;12.59;98.15;100765.81;4916794;28;20047;-88
2024/03/22 09:34:42;;;;;;;21.92;12.88;;;;;;;12.63;96.83;100770.13;4933896;29;20084;-86
2024/03/22 09:37:08;;;;;;;23.40;13.75;;;;;;;12.57;96.19;100757.97;4949641;29;20099;-89
2024/03/22 09:39:37;;;;;;;22.00;12.82;;;;;;;12.54;95.30;100763.28;4955466;29;20043;-89
2024/03/22 09:42:17;;;;;;;27.20;14.45;;;;;;;12.53;93.98;100750.19;4933772;29;20043;-88
2024/03/22 09:44:51;;;;;;;22.67;14.30;;;;;;;12.70;93.04;100750.78;4934110;29;20039;-86
2024/03/22 09:47:20;;;;;;;;;;;;;;;12.66;92.32;100741.22;4929777;28;20039;-86
2024/03/22 09:49:50;;;;;;;22.23;13.43;;;;;;;12.68;91.05;100744.66;4965306;28;19922;-87
2024/03/22 09:52:20;;;;;;;19.52;12.73;;;;;;;12.67;90.99;100734.19;4932319;28;20115;-85
2024/03/22 09:54:51;;;;;;;22.75;13.07;;;;;;;12.73;90.95;100742.81;4928808;29;20071;-87
2024/03/22 09:57:18;;;;;;;21.13;12.27;;;;;;;12.69;91.13;100741.16;4965216;28;20074;-87
2024/03/22 09:59:47;;;;;;;26.05;13.48;;;;;;;12.77;90.78;100743.66;4928395;29;20046;-89
2024/03/22 10:02:26;;;;;;;20.67;12.35;;;;;;;12.87;89.68;100742.59;4946655;29;20134;-88
2024/03/22 10:04:53;;;;;;;24.02;13.20;;;;;;;13.03;88.54;100729.19;4959243;28;20044;-87
2024/03/22 10:07:19;;;;;;;19.60;12.70;;;;;;;13.08;88.02;100728.22;4931624;28;20543;-87
2024/03/22 10:09:48;;;;;;;19.45;12.75;;;;;;;13.15;86.79;100733.38;4933241;29;20043;-88
2024/03/22 10:12:16;;;;;;;20.38;12.18;;;;;;;13.19;86.08;100725.41;4944041;29;20048;-88
2024/03/22 10:14:46;;;;;;;25.02;13.68;;;;;;;13.24;85.27;100723.56;4950887;29;20058;-88
2024/03/22 10:17:11;;;;;;;18.95;12.95;;;;;;;13.25;84.18;100727.03;4947893;29;20050;-87
2024/03/22 10:19:41;;;;;;;22.02;13.65;;;;;;;13.29;83.83;100727.88;4933842;28;20043;-87
2024/03/22 10:22:07;;;;;;;23.45;11.77;;;;;;;13.23;83.60;100720.94;4945307;29;20075;-87
2024/03/22 10:24:37;;;;;;;17.92;12.15;;;;;;;13.18;83.54;100723.66;4953792;28;20051;-89
2024/03/22 10:27:03;;;;;;;17.30;12.40;;;;;;;13.31;83.49;100728.69;4942789;29;20047;-89
2024/03/22 10:29:29;;;;;;;20.42;13.63;;;;;;;13.34;83.21;100726.88;4931713;28;20071;-88
2024/03/22 10:31:56;;;;;;;21.83;12.93;;;;;;;13.37;82.96;100726.81;4931240;29;20086;-88
2024/03/22 10:34:23;;;;;;;24.60;14.00;;;;;;;13.18;83.39;100731.56;4945105;28;20039;-87
2024/03/22 10:36:52;;;;;;;17.42;12.48;;;;;;;13.19;83.60;100722.78;4946255;29;20046;-85
2024/03/22 10:39:22;;;;;;;20.23;12.50;;;;;;;13.11;84.64;100716.78;4945445;28;20047;-87
2024/03/22 10:41:48;;;;;;;21.88;13.55;;;;;;;13.17;84.77;100710.56;4947376;29;20039;-85
2024/03/22 10:44:19;;;;;;;25.92;13.43;;;;;;;13.17;86.72;100705.31;4945606;28;20054;-86
2024/03/22 10:46:57;;;;;;;24.77;14.43;;;;;;;13.09;88.92;100705.44;4961919;28;20052;-88
2024/03/22 10:49:24;;;;;;;22.25;13.07;;;;;;;13.13;90.46;100700.97;4932767;29;20052;-88
2024/03/22 10:51:57;;;;;;;21.45;13.70;;;;;;;13.11;89.70;100705.41;4932624;29;20047;-87
2024/03/22 10:54:32;;;;;;;19.85;13.98;;;;;;;13.08;89.83;100708.97;4928723;29;20051;-88
2024/03/22 10:57:02;;;;;;;23.23;14.25;;;;;;;13.26;89.82;100710.38;4927670;29;20044;-88
2024/03/22 10:59:34;;;;;;;25.52;14.60;;;;;;;13.43;88.33;100710.09;4927411;29;20084;-88
2024/03/22 11:02:06;;;;;;;18.25;12.30;;;;;;;13.52;88.03;100709.91;4959473;28;20047;-86
2024/03/22 11:04:33;;;;;;;18.80;13.18;;;;;;;13.56;87.11;100705.44;4926722;29;20057;-84
2024/03/22 11:07:00;;;;;;;18.52;13.50;;;;;;;13.57;86.84;100696.63;4943458;29;20142;-87
2024/03/22 11:09:27;;;;;;;18.52;12.55;;;;;;;13.56;85.42;100694.94;4929849;28;20081;-86
2024/03/22 11:11:58;;;;;;;17.45;12.38;;;;;;;13.61;84.43;100698.34;4928261;29;20110;-86
2024/03/22 11:14:24;;;;;;;15.57;11.60;;;;;;;13.57;83.05;100697.53;4960120;28;20081;-86
2024/03/22 11:16:53;;;;;;;23.67;12.25;;;;;;;13.69;82.73;100692.91;4929298;29;20054;-89
2024/03/22 11:19:19;;;;;;;17.48;11.80;;;;;;;13.54;81.90;100686.19;4942740;28;20162;-87